Time;durP1;ratioP1;P1;durP2;ratioP2;P2;SDS_P1;SDS_P2;PMS_P1;PMS_P2;Temp;Humidity;BMP_temperature;BMP_pressure;BME280_temperature;BME280_humidity;BME280_pressure;Samples;Min_cycle;Max_cycle;Signal;HPM_P1;HPM_P2
2023/04/16 00:01:40;;;;;;;118.25;105.30;;;;;;;;;;4994565;28;20427;-57
2023/04/16 00:04:06;;;;;;;117.78;103.55;;;;;;;;;;4994285;28;20213;-57
2023/04/16 00:06:32;;;;;;;113.60;101.13;;;;;;;;;;4993303;28;20300;-57
2023/04/16 00:08:58;;;;;;;112.28;98.43;;;;;;;;;;4994545;28;20189;-57
2023/04/16 00:11:24;;;;;;;107.88;95.85;;;;;;;;;;4994992;28;20264;-57
2023/04/16 00:13:50;;;;;;;104.22;92.25;;;;;;;;;;4995165;28;20574;-57
2023/04/16 00:16:16;;;;;;;104.00;92.40;;;;;;;;;;4993413;28;20264;-57
2023/04/16 00:18:42;;;;;;;99.28;88.40;;;;;;;;;;4991110;28;20272;-57
2023/04/16 00:21:08;;;;;;;96.47;85.82;;;;;;;;;;4994100;28;20196;-57
2023/04/16 00:23:34;;;;;;;93.95;81.85;;;;;;;;;;4993740;28;20197;-57
2023/04/16 00:26:00;;;;;;;95.47;83.13;;;;;;;;;;4994679;28;20173;-57
2023/04/16 00:28:26;;;;;;;91.07;81.10;;;;;;;;;;4994372;28;20203;-57
2023/04/16 00:30:52;;;;;;;88.57;78.88;;;;;;;;;;4993207;28;20177;-57
2023/04/16 00:33:18;;;;;;;88.13;78.50;;;;;;;;;;4993827;28;20189;-57
2023/04/16 00:35:45;;;;;;;85.85;75.72;;;;;;;;;;4993880;28;20204;-57
2023/04/16 00:38:11;;;;;;;84.43;74.85;;;;;;;;;;4994521;28;20212;-57
2023/04/16 00:40:37;;;;;;;81.07;71.65;;;;;;;;;;4993832;28;20220;-57
2023/04/16 00:43:03;;;;;;;80.78;70.65;;;;;;;;;;4994191;28;20200;-57
2023/04/16 00:45:29;;;;;;;79.95;69.85;;;;;;;;;;4993900;28;20181;-57
2023/04/16 00:47:55;;;;;;;75.13;66.80;;;;;;;;;;4994569;28;20462;-57
2023/04/16 00:50:21;;;;;;;71.55;63.72;;;;;;;;;;4994232;28;20189;-57
2023/04/16 00:52:48;;;;;;;72.63;64.60;;;;;;;;;;4997017;28;20184;-57
2023/04/16 00:55:16;;;;;;;72.53;63.28;;;;;;;;;;4997958;28;20239;-57
2023/04/16 00:57:42;;;;;;;71.72;61.67;;;;;;;;;;4997815;28;20563;-57
2023/04/16 01:00:08;;;;;;;67.65;59.70;;;;;;;;;;4998280;28;20201;-57
2023/04/16 01:02:35;;;;;;;66.25;58.95;;;;;;;;;;4998382;28;20657;-57
2023/04/16 01:05:01;;;;;;;63.65;56.53;;;;;;;;;;4997099;28;20205;-57
2023/04/16 01:07:27;;;;;;;64.43;57.05;;;;;;;;;;4996395;28;20470;-57
2023/04/16 01:09:54;;;;;;;62.83;55.63;;;;;;;;;;4997822;28;20184;-57
2023/04/16 01:12:19;;;;;;;60.10;53.60;;;;;;;;;;4996968;28;20882;-57
2023/04/16 01:14:45;;;;;;;60.63;53.95;;;;;;;;;;4996634;28;20185;-57
2023/04/16 01:17:11;;;;;;;59.97;53.42;;;;;;;;;;4996479;28;20268;-57
2023/04/16 01:19:37;;;;;;;58.55;51.78;;;;;;;;;;4996473;28;20672;-57
2023/04/16 01:22:04;;;;;;;55.40;49.40;;;;;;;;;;4998076;28;20232;-57
2023/04/16 01:24:30;;;;;;;55.65;48.80;;;;;;;;;;4995926;28;20193;-57
2023/04/16 01:26:58;;;;;;;54.90;48.85;;;;;;;;;;4997380;28;20181;-57
2023/04/16 01:29:24;;;;;;;54.58;48.40;;;;;;;;;;4997141;28;20185;-57
2023/04/16 01:31:49;;;;;;;53.38;47.65;;;;;;;;;;4997693;28;20592;-57
2023/04/16 01:34:15;;;;;;;52.97;46.70;;;;;;;;;;4997066;28;20181;-57
2023/04/16 01:36:41;;;;;;;49.90;44.15;;;;;;;;;;4996997;28;20477;-57
2023/04/16 01:39:10;;;;;;;51.28;45.40;;;;;;;;;;4995496;28;20331;-57
2023/04/16 01:41:36;;;;;;;50.50;45.00;;;;;;;;;;4996774;28;20285;-57
2023/04/16 01:44:02;;;;;;;51.13;44.75;;;;;;;;;;4992857;28;20216;-57
2023/04/16 01:46:28;;;;;;;47.30;42.17;;;;;;;;;;4996788;28;20437;-57
2023/04/16 01:48:54;;;;;;;49.30;44.03;;;;;;;;;;4996894;28;20192;-57
2023/04/16 01:51:21;;;;;;;47.15;42.13;;;;;;;;;;4996344;28;20213;-57
2023/04/16 01:53:47;;;;;;;45.42;40.42;;;;;;;;;;4995835;28;20177;-57
2023/04/16 01:56:13;;;;;;;46.17;41.28;;;;;;;;;;4993846;28;20269;-57
2023/04/16 01:58:40;;;;;;;45.83;40.90;;;;;;;;;;4996551;28;20193;-57
2023/04/16 02:01:06;;;;;;;44.35;39.58;;;;;;;;;;4997166;28;20275;-57
2023/04/16 02:03:32;;;;;;;43.17;38.55;;;;;;;;;;4997367;28;20299;-57
2023/04/16 02:05:57;;;;;;;44.88;39.97;;;;;;;;;;4996213;28;20201;-57
2023/04/16 02:08:23;;;;;;;41.38;36.97;;;;;;;;;;4995324;28;20305;-57
2023/04/16 02:10:50;;;;;;;41.60;36.28;;;;;;;;;;4996330;28;20200;-57
2023/04/16 02:13:16;;;;;;;40.72;36.35;;;;;;;;;;4996404;28;20241;-57
2023/04/16 02:15:49;;;;;;;40.03;35.67;;;;;;;;;;4996122;28;20185;-57
2023/04/16 02:18:15;;;;;;;38.30;34.13;;;;;;;;;;4995231;28;20557;-57
2023/04/16 02:20:42;;;;;;;38.97;34.75;;;;;;;;;;4996225;28;20185;-57
2023/04/16 02:23:08;;;;;;;37.20;33.30;;;;;;;;;;4995995;28;20535;-57
2023/04/16 02:25:39;;;;;;;38.83;34.05;;;;;;;;;;4995580;28;20584;-57
2023/04/16 02:28:05;;;;;;;36.45;32.65;;;;;;;;;;4996675;28;20181;-57
2023/04/16 02:30:33;;;;;;;37.38;33.47;;;;;;;;;;4996167;28;20188;-57
2023/04/16 02:33:00;;;;;;;34.63;30.95;;;;;;;;;;4996234;28;20185;-57
2023/04/16 02:35:26;;;;;;;36.50;32.60;;;;;;;;;;4995969;28;20215;-57
2023/04/16 02:37:52;;;;;;;34.38;30.67;;;;;;;;;;4995093;28;20581;-57
2023/04/16 02:40:18;;;;;;;33.50;29.92;;;;;;;;;;4995026;28;20467;-57
2023/04/16 02:42:45;;;;;;;34.13;30.45;;;;;;;;;;4996299;28;20196;-57
2023/04/16 02:45:11;;;;;;;32.33;28.98;;;;;;;;;;4998986;28;20219;-57
2023/04/16 02:47:37;;;;;;;31.75;28.38;;;;;;;;;;4990355;28;20225;-57
2023/04/16 02:50:03;;;;;;;33.05;29.50;;;;;;;;;;4995166;28;20173;-57
2023/04/16 02:52:31;;;;;;;30.67;27.48;;;;;;;;;;4996113;28;20185;-57
2023/04/16 02:54:56;;;;;;;32.25;28.80;;;;;;;;;;4993249;28;21199;-57
2023/04/16 02:57:22;;;;;;;30.55;27.35;;;;;;;;;;4994698;28;20291;-57
2023/04/16 02:59:48;;;;;;;29.40;26.20;;;;;;;;;;4995370;28;20196;-57
2023/04/16 03:02:15;;;;;;;29.73;26.55;;;;;;;;;;4996221;28;20189;-57
2023/04/16 03:04:41;;;;;;;29.90;26.70;;;;;;;;;;4995192;28;20217;-57
2023/04/16 03:07:08;;;;;;;28.30;25.38;;;;;;;;;;4995187;28;20283;-57
2023/04/16 03:09:34;;;;;;;28.35;25.35;;;;;;;;;;4994735;28;20181;-57
2023/04/16 03:12:01;;;;;;;28.77;25.67;;;;;;;;;;4988104;28;20187;-57
2023/04/16 03:14:27;;;;;;;26.17;23.38;;;;;;;;;;4994918;28;20285;-57
2023/04/16 03:16:53;;;;;;;28.52;25.52;;;;;;;;;;4995053;28;20557;-57
2023/04/16 03:19:18;;;;;;;25.77;23.08;;;;;;;;;;4995659;28;20229;-57
2023/04/16 03:21:44;;;;;;;26.40;23.63;;;;;;;;;;4995457;28;20215;-57
2023/04/16 03:24:10;;;;;;;26.40;23.48;;;;;;;;;;4995145;28;20461;-57
2023/04/16 03:26:36;;;;;;;25.80;23.02;;;;;;;;;;4993624;28;20621;-57
2023/04/16 03:29:02;;;;;;;26.48;23.77;;;;;;;;;;4995396;28;20189;-57
2023/04/16 03:31:28;;;;;;;25.10;22.45;;;;;;;;;;4995061;28;20540;-57
2023/04/16 03:33:54;;;;;;;25.52;22.83;;;;;;;;;;4995483;28;20260;-57
2023/04/16 03:36:21;;;;;;;25.17;22.48;;;;;;;;;;4993788;28;20235;-57
2023/04/16 03:38:47;;;;;;;26.38;23.60;;;;;;;;;;4994260;28;20181;-57
2023/04/16 03:41:13;;;;;;;24.42;21.83;;;;;;;;;;4994658;28;20275;-58
2023/04/16 03:43:40;;;;;;;24.50;22.00;;;;;;;;;;4993481;28;20208;-58
2023/04/16 03:46:06;;;;;;;23.90;21.50;;;;;;;;;;4995100;28;20232;-58
2023/04/16 03:48:32;;;;;;;24.40;21.80;;;;;;;;;;4994199;28;20185;-58
2023/04/16 03:50:58;;;;;;;23.30;20.88;;;;;;;;;;4994426;28;20188;-58
2023/04/16 03:53:24;;;;;;;22.60;19.83;;;;;;;;;;4995093;28;20607;-58
2023/04/16 03:55:50;;;;;;;22.25;19.88;;;;;;;;;;4994853;28;20181;-58
2023/04/16 03:58:16;;;;;;;22.13;19.85;;;;;;;;;;4993888;28;20449;-58
2023/04/16 04:00:42;;;;;;;21.17;18.98;;;;;;;;;;4992267;28;20213;-58
2023/04/16 04:03:12;;;;;;;20.60;18.50;;;;;;;;;;4991920;28;20259;-58
2023/04/16 04:05:39;;;;;;;20.92;18.73;;;;;;;;;;4993818;28;20204;-58
2023/04/16 04:08:05;;;;;;;20.10;18.05;;;;;;;;;;4994214;28;20251;-58
2023/04/16 04:10:32;;;;;;;21.13;18.95;;;;;;;;;;4994253;28;20184;-58
2023/04/16 04:12:58;;;;;;;19.50;17.50;;;;;;;;;;4994834;28;20547;-60
2023/04/16 04:15:24;;;;;;;19.25;17.25;;;;;;;;;;4993672;28;20675;-54
2023/04/16 04:17:50;;;;;;;20.65;14.93;;;;;;;;;;4992775;28;20192;-54
2023/04/16 04:20:15;;;;;;;15.15;13.05;;;;;;;;;;4994158;28;20185;-54
2023/04/16 04:22:41;;;;;;;17.70;13.35;;;;;;;;;;4993469;28;20200;-54
2023/04/16 04:25:08;;;;;;;15.43;12.13;;;;;;;;;;4995351;28;20213;-54
2023/04/16 04:27:34;;;;;;;18.35;11.73;;;;;;;;;;4998557;28;20181;-54
2023/04/16 04:30:00;;;;;;;12.50;10.52;;;;;;;;;;4998795;28;20193;-54
2023/04/16 04:32:26;;;;;;;15.55;10.40;;;;;;;;;;4998424;28;20205;-54
2023/04/16 04:34:52;;;;;;;17.05;11.80;;;;;;;;;;4997458;28;20693;-54
2023/04/16 04:37:17;;;;;;;15.95;10.55;;;;;;;;;;4998395;28;20192;-54
2023/04/16 04:39:43;;;;;;;12.98;10.30;;;;;;;;;;4998531;28;20458;-54
2023/04/16 04:42:09;;;;;;;13.52;9.68;;;;;;;;;;4998629;28;20185;-54
2023/04/16 04:44:35;;;;;;;14.77;10.07;;;;;;;;;;4998196;28;20472;-49
2023/04/16 04:47:01;;;;;;;15.30;10.35;;;;;;;;;;4997507;28;20177;-55
2023/04/16 04:49:27;;;;;;;11.52;8.55;;;;;;;;;;4996151;28;20185;-48
2023/04/16 04:51:53;;;;;;;15.15;9.30;;;;;;;;;;4998052;28;20178;-52
2023/04/16 04:54:19;;;;;;;13.25;9.45;;;;;;;;;;4998531;28;20236;-49
2023/04/16 04:56:45;;;;;;;11.82;8.95;;;;;;;;;;4995122;28;20453;-45
2023/04/16 04:59:11;;;;;;;13.50;9.43;;;;;;;;;;4998274;28;20192;-50
2023/04/16 05:01:37;;;;;;;12.98;8.30;;;;;;;;;;4997446;28;20658;-53
2023/04/16 05:04:03;;;;;;;12.77;8.40;;;;;;;;;;4997915;28;20220;-53
2023/04/16 05:06:30;;;;;;;23.98;18.48;;;;;;;;;;4997022;28;20185;-53
2023/04/16 05:08:56;;;;;;;31.65;22.65;;;;;;;;;;4997127;28;20188;-53
2023/04/16 05:11:21;;;;;;;20.77;18.27;;;;;;;;;;4998249;28;20189;-53
2023/04/16 05:13:47;;;;;;;24.83;17.13;;;;;;;;;;4997533;28;20591;-54
2023/04/16 05:16:13;;;;;;;20.33;16.88;;;;;;;;;;4997517;28;20561;-54
2023/04/16 05:18:39;;;;;;;22.55;14.80;;;;;;;;;;4997295;28;20205;-54
2023/04/16 05:21:05;;;;;;;18.65;14.10;;;;;;;;;;4997166;28;20625;-54
2023/04/16 05:23:31;;;;;;;18.05;13.82;;;;;;;;;;4996863;28;20220;-54
2023/04/16 05:25:57;;;;;;;21.17;14.50;;;;;;;;;;4997469;28;20239;-54
2023/04/16 05:28:23;;;;;;;18.08;13.43;;;;;;;;;;4997716;28;20185;-54
2023/04/16 05:30:49;;;;;;;18.90;13.25;;;;;;;;;;4997228;28;20227;-54
2023/04/16 05:33:15;;;;;;;18.98;12.48;;;;;;;;;;4997302;28;20233;-54
2023/04/16 05:35:40;;;;;;;23.00;13.10;;;;;;;;;;4996081;28;20208;-54
2023/04/16 05:38:07;;;;;;;20.33;12.80;;;;;;;;;;4996217;28;20193;-54
2023/04/16 05:40:32;;;;;;;24.17;11.85;;;;;;;;;;4997343;28;20181;-54
2023/04/16 05:42:58;;;;;;;16.95;10.80;;;;;;;;;;4997379;28;20236;-54
2023/04/16 05:45:24;;;;;;;21.33;10.20;;;;;;;;;;4996721;28;20623;-54
2023/04/16 05:47:50;;;;;;;23.13;10.75;;;;;;;;;;4997144;28;20177;-54
2023/04/16 05:50:16;;;;;;;13.77;9.13;;;;;;;;;;4996241;28;20192;-54
2023/04/16 05:52:42;;;;;;;16.77;9.43;;;;;;;;;;4996072;28;20186;-54
2023/04/16 05:55:08;;;;;;;15.63;8.63;;;;;;;;;;4996321;28;20189;-54
2023/04/16 05:57:34;;;;;;;15.00;8.45;;;;;;;;;;4996541;28;20192;-54
2023/04/16 06:00:00;;;;;;;16.25;8.60;;;;;;;;;;4995518;28;20193;-54
2023/04/16 06:02:26;;;;;;;11.40;7.95;;;;;;;;;;4996921;28;20193;-54
2023/04/16 06:04:52;;;;;;;12.68;7.60;;;;;;;;;;4996543;28;20329;-54
2023/04/16 06:07:18;;;;;;;10.38;7.18;;;;;;;;;;4996915;28;20181;-54
2023/04/16 06:09:44;;;;;;;9.77;7.32;;;;;;;;;;4995249;28;20463;-54
2023/04/16 06:12:10;;;;;;;9.18;6.63;;;;;;;;;;4996680;28;20189;-54
2023/04/16 06:14:36;;;;;;;12.63;6.80;;;;;;;;;;4996480;28;20524;-54
2023/04/16 06:17:02;;;;;;;136.20;48.15;;;;;;;;;;4996069;28;20208;-48
2023/04/16 06:19:28;;;;;;;140.70;50.88;;;;;;;;;;4996592;28;20223;-54
2023/04/16 06:21:54;;;;;;;117.60;38.95;;;;;;;;;;4996511;28;20573;-58
2023/04/16 06:24:20;;;;;;;73.82;30.27;;;;;;;;;;4995369;28;20211;-51
2023/04/16 06:26:46;;;;;;;59.13;24.67;;;;;;;;;;4995860;28;20185;-54
2023/04/16 06:29:12;;;;;;;46.95;20.45;;;;;;;;;;4996064;28;20178;-53
2023/04/16 06:31:38;;;;;;;35.75;18.23;;;;;;;;;;4991173;28;20185;-53
2023/04/16 06:34:03;;;;;;;35.88;15.75;;;;;;;;;;4996115;28;20568;-53
2023/04/16 06:36:30;;;;;;;33.83;14.77;;;;;;;;;;4996171;28;20189;-53
2023/04/16 06:38:55;;;;;;;27.00;13.85;;;;;;;;;;4995007;28;20444;-54
2023/04/16 06:41:24;;;;;;;27.35;12.80;;;;;;;;;;4995962;28;20189;-54
2023/04/16 06:43:50;;;;;;;28.17;13.18;;;;;;;;;;4995047;28;20197;-54
2023/04/16 06:46:16;;;;;;;31.88;12.55;;;;;;;;;;4995738;28;20240;-54
2023/04/16 06:48:42;;;;;;;26.50;12.77;;;;;;;;;;4994908;28;20177;-54
2023/04/16 06:51:08;;;;;;;28.20;11.50;;;;;;;;;;4995049;28;20605;-54
2023/04/16 06:53:36;;;;;;;23.45;10.65;;;;;;;;;;4995164;28;20197;-54
2023/04/16 06:56:02;;;;;;;21.83;11.18;;;;;;;;;;4995928;28;20422;-54
2023/04/16 06:58:28;;;;;;;19.55;10.77;;;;;;;;;;4994559;28;20846;-54
2023/04/16 07:00:54;;;;;;;20.13;10.52;;;;;;;;;;4995569;28;20185;-54
2023/04/16 07:03:20;;;;;;;25.08;9.93;;;;;;;;;;4995205;28;20193;-54
2023/04/16 07:05:46;;;;;;;18.63;9.95;;;;;;;;;;4995139;28;20185;-54
2023/04/16 07:08:11;;;;;;;23.35;9.80;;;;;;;;;;4995065;28;20477;-53
2023/04/16 07:10:37;;;;;;;20.73;9.80;;;;;;;;;;4994857;28;20185;-53
2023/04/16 07:13:03;;;;;;;18.48;9.10;;;;;;;;;;4995177;28;20553;-54
2023/04/16 07:15:29;;;;;;;16.60;9.38;;;;;;;;;;4995058;28;20196;-54
2023/04/16 07:17:55;;;;;;;18.60;9.68;;;;;;;;;;4995600;28;20189;-54
2023/04/16 07:20:21;;;;;;;18.83;9.07;;;;;;;;;;4995367;28;20181;-54
2023/04/16 07:22:47;;;;;;;16.05;8.38;;;;;;;;;;4995692;28;20218;-54
2023/04/16 07:25:13;;;;;;;17.55;8.40;;;;;;;;;;4994565;28;20650;-54
2023/04/16 07:27:39;;;;;;;15.32;8.07;;;;;;;;;;4987858;28;20271;-54
2023/04/16 07:30:05;;;;;;;16.13;7.53;;;;;;;;;;4995636;28;20260;-54
2023/04/16 07:32:31;;;;;;;13.32;7.35;;;;;;;;;;4995314;28;20318;-54
2023/04/16 07:34:57;;;;;;;14.48;7.45;;;;;;;;;;4994827;28;20177;-54
2023/04/16 07:37:23;;;;;;;13.85;7.53;;;;;;;;;;4995276;28;20212;-54
2023/04/16 07:39:50;;;;;;;14.02;7.78;;;;;;;;;;4993427;28;20724;-54
2023/04/16 07:42:16;;;;;;;13.95;7.30;;;;;;;;;;4989515;28;20427;-54
2023/04/16 07:44:42;;;;;;;11.55;6.78;;;;;;;;;;4994127;28;20207;-54
2023/04/16 07:47:08;;;;;;;11.20;6.78;;;;;;;;;;4995315;28;20509;-54
2023/04/16 07:49:34;;;;;;;14.80;7.50;;;;;;;;;;4994155;28;20173;-54
2023/04/16 07:52:00;;;;;;;11.98;6.57;;;;;;;;;;4995076;28;20235;-55
2023/04/16 07:54:25;;;;;;;11.07;6.47;;;;;;;;;;4992369;28;20620;-54
2023/04/16 07:56:51;;;;;;;12.70;6.15;;;;;;;;;;4992979;28;20264;-54
2023/04/16 07:59:17;;;;;;;12.23;6.85;;;;;;;;;;4994751;28;20185;-54
2023/04/16 08:01:43;;;;;;;10.05;6.38;;;;;;;;;;4994770;28;20235;-54
2023/04/16 08:04:09;;;;;;;13.65;6.45;;;;;;;;;;4994840;28;20213;-54
2023/04/16 08:06:35;;;;;;;10.07;5.70;;;;;;;;;;4994453;28;20183;-54
2023/04/16 08:09:01;;;;;;;10.65;6.05;;;;;;;;;;4994451;28;20460;-54
2023/04/16 08:11:27;;;;;;;9.27;5.68;;;;;;;;;;4994365;28;20181;-54
2023/04/16 08:13:53;;;;;;;8.82;6.05;;;;;;;;;;4994263;28;20208;-54
2023/04/16 08:16:19;;;;;;;10.73;5.65;;;;;;;;;;4993580;28;20220;-54
2023/04/16 08:18:45;;;;;;;11.43;5.97;;;;;;;;;;4994583;28;20205;-54
2023/04/16 08:21:14;;;;;;;8.93;5.82;;;;;;;;;;4994530;28;20228;-54
2023/04/16 08:23:40;;;;;;;9.68;5.43;;;;;;;;;;4988984;28;20201;-54
2023/04/16 08:26:06;;;;;;;7.68;4.95;;;;;;;;;;4994593;28;20603;-54
2023/04/16 08:28:32;;;;;;;9.75;4.88;;;;;;;;;;4993706;28;20488;-54
2023/04/16 08:30:58;;;;;;;9.77;5.38;;;;;;;;;;4986073;28;20182;-54
2023/04/16 08:33:24;;;;;;;9.40;4.97;;;;;;;;;;4994575;28;20224;-54
2023/04/16 08:35:50;;;;;;;8.35;5.20;;;;;;;;;;4994162;28;20259;-54
2023/04/16 08:38:15;;;;;;;8.30;5.45;;;;;;;;;;4994778;28;20193;-54
2023/04/16 08:40:42;;;;;;;7.35;4.38;;;;;;;;;;4993689;28;20189;-54
2023/04/16 08:43:12;;;;;;;6.20;4.40;;;;;;;;;;4994610;28;20263;-54
2023/04/16 08:45:41;;;;;;;6.95;4.45;;;;;;;;;;4992847;28;20204;-54
2023/04/16 08:48:07;;;;;;;8.05;4.97;;;;;;;;;;4994221;28;20300;-54
2023/04/16 08:50:33;;;;;;;7.68;4.63;;;;;;;;;;4993222;28;20468;-54
2023/04/16 08:53:02;;;;;;;5.60;4.15;;;;;;;;;;4993874;28;20192;-54
2023/04/16 08:55:35;;;;;;;6.88;4.68;;;;;;;;;;4992942;28;20193;-54
2023/04/16 08:58:02;;;;;;;8.00;4.50;;;;;;;;;;4994536;28;20188;-54
2023/04/16 09:00:31;;;;;;;7.35;4.15;;;;;;;;;;4993712;28;20181;-54
2023/04/16 09:02:57;;;;;;;5.63;4.03;;;;;;;;;;4993238;28;20209;-54
2023/04/16 09:05:25;;;;;;;7.82;4.28;;;;;;;;;;4994123;28;20201;-54
2023/04/16 09:07:51;;;;;;;5.22;3.97;;;;;;;;;;4994169;28;20575;-54
2023/04/16 09:10:18;;;;;;;6.32;4.47;;;;;;;;;;4994395;28;20243;-54
2023/04/16 09:12:44;;;;;;;6.45;4.47;;;;;;;;;;4994292;28;20181;-54
2023/04/16 09:15:10;;;;;;;5.63;4.57;;;;;;;;;;4996307;28;20573;-54
2023/04/16 09:17:36;;;;;;;7.45;4.28;;;;;;;;;;4997639;28;20193;-54
2023/04/16 09:20:04;;;;;;;5.30;4.25;;;;;;;;;;4996927;28;20185;-54
2023/04/16 09:22:30;;;;;;;5.85;3.83;;;;;;;;;;4997174;28;20185;-54
2023/04/16 09:24:56;;;;;;;5.50;3.90;;;;;;;;;;4997185;28;20201;-54
2023/04/16 09:27:22;;;;;;;5.70;3.65;;;;;;;;;;4997775;28;20575;-54
2023/04/16 09:29:49;;;;;;;4.85;4.10;;;;;;;;;;4990317;28;20514;-54
2023/04/16 09:32:15;;;;;;;4.93;3.80;;;;;;;;;;4997978;28;20179;-54
2023/04/16 09:35:01;;;;;;;6.07;3.83;;;;;;;;;;4997075;28;20193;-54
2023/04/16 09:37:30;;;;;;;6.78;3.80;;;;;;;;;;4996125;28;20185;-54
2023/04/16 09:40:03;;;;;;;5.07;3.55;;;;;;;;;;4997291;28;20636;-54
2023/04/16 09:42:30;;;;;;;4.90;3.50;;;;;;;;;;4996603;28;20181;-54
2023/04/16 09:44:56;;;;;;;4.78;3.70;;;;;;;;;;4992521;28;20293;-54
2023/04/16 09:47:22;;;;;;;4.85;3.47;;;;;;;;;;4997230;28;20272;-54
2023/04/16 09:49:48;;;;;;;5.13;3.42;;;;;;;;;;4996188;28;20211;-54
2023/04/16 09:52:15;;;;;;;5.00;3.28;;;;;;;;;;4996505;28;20271;-54
2023/04/16 09:54:51;;;;;;;4.53;3.15;;;;;;;;;;4996747;28;20186;-54
2023/04/16 09:57:21;;;;;;;4.63;3.30;;;;;;;;;;4991014;28;20279;-54
2023/04/16 09:59:48;;;;;;;4.80;3.08;;;;;;;;;;4996770;28;20189;-54
2023/04/16 10:02:13;;;;;;;4.40;2.90;;;;;;;;;;4990713;28;20189;-54
2023/04/16 10:04:49;;;;;;;3.72;3.10;;;;;;;;;;4989043;28;20696;-54
2023/04/16 10:07:15;;;;;;;4.45;2.80;;;;;;;;;;4989017;28;20541;-54
2023/04/16 10:09:42;;;;;;;4.25;3.17;;;;;;;;;;4996336;28;20492;-54
2023/04/16 10:12:08;;;;;;;4.53;2.97;;;;;;;;;;4995847;28;20185;-54
2023/04/16 10:14:34;;;;;;;3.63;2.92;;;;;;;;;;4996849;28;20268;-53
2023/04/16 10:17:00;;;;;;;3.75;2.95;;;;;;;;;;4996191;28;20177;-53
2023/04/16 10:19:27;;;;;;;3.58;2.80;;;;;;;;;;4995666;28;20276;-53
2023/04/16 10:21:54;;;;;;;4.88;3.20;;;;;;;;;;4996706;28;20239;-53
2023/04/16 10:24:20;;;;;;;3.55;2.85;;;;;;;;;;4994457;28;20296;-53
2023/04/16 10:26:46;;;;;;;3.38;2.50;;;;;;;;;;4995869;28;20182;-54
2023/04/16 10:29:12;;;;;;;4.57;2.63;;;;;;;;;;4996519;28;20457;-54
2023/04/16 10:31:39;;;;;;;3.63;3.00;;;;;;;;;;4996151;28;20202;-54
2023/04/16 10:34:05;;;;;;;5.60;2.92;;;;;;;;;;4994585;28;20276;-53
2023/04/16 10:36:35;;;;;;;4.30;2.97;;;;;;;;;;4990977;28;20190;-53
2023/04/16 10:39:01;;;;;;;3.35;2.65;;;;;;;;;;4992144;28;20204;-54
2023/04/16 10:41:27;;;;;;;2.58;2.33;;;;;;;;;;4995888;28;20585;-54
2023/04/16 10:44:04;;;;;;;3.25;2.63;;;;;;;;;;4995044;28;20304;-54
2023/04/16 10:46:31;;;;;;;4.18;2.63;;;;;;;;;;4995978;28;20232;-54
2023/04/16 10:49:00;;;;;;;3.05;2.35;;;;;;;;;;4996226;28;20235;-53
2023/04/16 10:51:26;;;;;;;3.88;2.58;;;;;;;;;;4995607;28;20244;-54
2023/04/16 10:53:54;;;;;;;4.57;2.85;;;;;;;;;;4989798;28;20205;-53
2023/04/16 10:56:26;;;;;;;5.18;2.58;;;;;;;;;;4995315;28;20204;-53
2023/04/16 10:58:55;;;;;;;3.15;2.25;;;;;;;;;;4996114;28;20259;-53
2023/04/16 11:01:26;;;;;;;4.25;2.20;;;;;;;;;;4996253;28;20243;-54
2023/04/16 11:03:52;;;;;;;5.55;3.10;;;;;;;;;;4996119;28;20216;-53
2023/04/16 11:06:25;;;;;;;10.57;4.38;;;;;;;;;;4993491;28;21718;-53
2023/04/16 11:08:51;;;;;;;23.55;7.65;;;;;;;;;;4993746;28;20441;-54
2023/04/16 11:11:20;;;;;;;27.02;6.88;;;;;;;;;;4994190;28;20219;-54
2023/04/16 11:13:46;;;;;;;26.48;8.07;;;;;;;;;;4995356;28;20196;-53
2023/04/16 11:16:13;;;;;;;33.00;7.72;;;;;;;;;;4995125;28;20185;-53
2023/04/16 11:18:39;;;;;;;24.80;6.72;;;;;;;;;;4995299;28;20315;-53
2023/04/16 11:21:09;;;;;;;23.33;7.10;;;;;;;;;;4995333;28;20203;-53
2023/04/16 11:23:48;;;;;;;19.25;6.85;;;;;;;;;;4995756;28;20192;-53
2023/04/16 11:26:24;;;;;;;17.08;5.78;;;;;;;;;;4994296;28;20236;-53
2023/04/16 11:28:50;;;;;;;16.83;5.75;;;;;;;;;;4995333;28;20184;-53
2023/04/16 11:31:16;;;;;;;16.60;5.40;;;;;;;;;;4995277;28;20188;-53
2023/04/16 11:33:42;;;;;;;13.95;5.28;;;;;;;;;;4995010;28;20264;-53
2023/04/16 11:36:08;;;;;;;14.15;5.07;;;;;;;;;;4994786;28;20181;-53
2023/04/16 11:38:40;;;;;;;14.82;4.70;;;;;;;;;;4994325;28;20188;-53
2023/04/16 11:41:06;;;;;;;13.05;5.28;;;;;;;;;;4994498;28;20177;-53
2023/04/16 11:43:32;;;;;;;14.65;4.90;;;;;;;;;;4995000;28;20184;-53
2023/04/16 11:46:01;;;;;;;14.27;4.70;;;;;;;;;;4994870;28;20195;-53
2023/04/16 11:48:46;;;;;;;12.95;4.30;;;;;;;;;;4994804;28;20991;-53
2023/04/16 11:51:12;;;;;;;14.00;4.55;;;;;;;;;;4991861;28;20573;-53
2023/04/16 11:53:45;;;;;;;16.85;4.68;;;;;;;;;;4995385;28;20204;-53
2023/04/16 11:56:11;;;;;;;11.55;4.22;;;;;;;;;;4994864;28;20177;-54
2023/04/16 11:58:37;;;;;;;16.15;5.30;;;;;;;;;;4993382;28;20312;-54
2023/04/16 12:01:03;;;;;;;19.52;6.40;;;;;;;;;;4994507;28;20521;-54
2023/04/16 12:03:45;;;;;;;15.77;6.53;;;;;;;;;;4991522;28;20208;-54
2023/04/16 12:06:11;;;;;;;14.90;6.90;;;;;;;;;;4991684;28;20296;-54
2023/04/16 12:08:37;;;;;;;19.98;7.35;;;;;;;;;;4994912;28;20264;-54
2023/04/16 12:11:03;;;;;;;19.90;7.03;;;;;;;;;;4994733;28;20177;-54
2023/04/16 12:13:29;;;;;;;20.77;7.63;;;;;;;;;;4993716;28;20205;-54
2023/04/16 12:15:56;;;;;;;18.30;6.47;;;;;;;;;;4994200;28;20660;-54
2023/04/16 12:18:28;;;;;;;14.73;6.70;;;;;;;;;;4994773;28;20173;-53
2023/04/16 12:20:54;;;;;;;20.35;6.22;;;;;;;;;;4993962;28;20554;-53
2023/04/16 12:23:27;;;;;;;16.63;6.13;;;;;;;;;;4994513;28;20221;-53
2023/04/16 12:25:53;;;;;;;12.90;5.30;;;;;;;;;;4993159;28;20189;-53
2023/04/16 12:28:29;;;;;;;15.68;5.72;;;;;;;;;;4994110;28;20289;-53
2023/04/16 12:30:55;;;;;;;11.85;5.15;;;;;;;;;;4992827;28;20185;-53
2023/04/16 12:33:21;;;;;;;10.73;4.90;;;;;;;;;;4994925;28;20177;-53
2023/04/16 12:35:47;;;;;;;10.38;5.10;;;;;;;;;;4993714;28;20196;-53
2023/04/16 12:38:14;;;;;;;12.98;4.88;;;;;;;;;;4993498;28;20224;-54
2023/04/16 12:40:40;;;;;;;11.95;5.22;;;;;;;;;;4994713;28;20196;-54
2023/04/16 12:43:07;;;;;;;10.10;5.20;;;;;;;;;;4989921;28;20328;-54
2023/04/16 12:45:33;;;;;;;11.40;5.00;;;;;;;;;;4992891;28;20380;-54
2023/04/16 12:47:59;;;;;;;8.18;4.32;;;;;;;;;;4997878;28;20655;-54
2023/04/16 12:50:27;;;;;;;11.98;5.00;;;;;;;;;;4997265;28;20195;-54
2023/04/16 12:52:53;;;;;;;12.32;5.00;;;;;;;;;;4998432;28;20185;-54
2023/04/16 12:55:19;;;;;;;13.48;4.80;;;;;;;;;;4998243;28;20185;-53
2023/04/16 12:57:47;;;;;;;14.50;4.70;;;;;;;;;;4998040;28;20183;-49
2023/04/16 13:00:13;;;;;;;10.40;4.55;;;;;;;;;;4996558;28;20200;-47
2023/04/16 13:02:39;;;;;;;14.98;4.95;;;;;;;;;;4998173;28;20203;-48
2023/04/16 13:05:06;;;;;;;9.27;3.92;;;;;;;;;;4997713;28;20240;-51
2023/04/16 13:07:32;;;;;;;10.85;3.83;;;;;;;;;;4997738;28;20185;-51
2023/04/16 13:09:59;;;;;;;8.98;4.05;;;;;;;;;;4998190;28;20244;-51
2023/04/16 13:12:26;;;;;;;10.13;3.92;;;;;;;;;;4997958;28;20181;-52
2023/04/16 13:14:52;;;;;;;8.05;4.10;;;;;;;;;;4995715;28;20185;-51
2023/04/16 13:17:18;;;;;;;11.43;4.13;;;;;;;;;;4997299;28;20196;-51
2023/04/16 13:19:44;;;;;;;6.38;3.30;;;;;;;;;;4992848;28;20193;-51
2023/04/16 13:22:10;;;;;;;6.50;3.53;;;;;;;;;;4997137;28;20711;-51
2023/04/16 13:24:37;;;;;;;7.55;3.70;;;;;;;;;;4997863;28;20209;-51
2023/04/16 13:27:03;;;;;;;7.43;3.85;;;;;;;;;;4997237;28;20508;-51
2023/04/16 13:29:29;;;;;;;6.38;3.35;;;;;;;;;;4997707;28;20178;-51
2023/04/16 13:31:55;;;;;;;10.30;3.85;;;;;;;;;;4996396;28;20203;-51
2023/04/16 13:34:21;;;;;;;8.35;3.63;;;;;;;;;;4997528;28;20185;-51
2023/04/16 13:36:47;;;;;;;13.40;3.90;;;;;;;;;;4993801;28;20200;-50
2023/04/16 13:39:14;;;;;;;7.60;3.70;;;;;;;;;;4995440;28;20177;-51
2023/04/16 13:41:40;;;;;;;9.13;3.92;;;;;;;;;;4996961;28;20185;-52
2023/04/16 13:44:06;;;;;;;7.18;3.33;;;;;;;;;;4995949;28;20205;-51
2023/04/16 13:46:33;;;;;;;14.30;3.28;;;;;;;;;;4996015;28;20599;-51
2023/04/16 13:48:58;;;;;;;10.95;3.30;;;;;;;;;;4997185;28;20177;-50
2023/04/16 13:51:26;;;;;;;11.32;3.42;;;;;;;;;;4996844;28;20184;-50
2023/04/16 13:53:54;;;;;;;9.80;3.67;;;;;;;;;;4997534;28;20599;-50
2023/04/16 13:56:20;;;;;;;11.98;4.07;;;;;;;;;;4997117;28;20185;-48
2023/04/16 13:58:45;;;;;;;9.95;3.22;;;;;;;;;;4996023;28;20456;-48
2023/04/16 14:01:11;;;;;;;11.32;3.25;;;;;;;;;;4996449;28;20319;-48
2023/04/16 14:03:39;;;;;;;10.57;3.08;;;;;;;;;;4996504;28;20197;-48
2023/04/16 14:06:05;;;;;;;9.63;3.35;;;;;;;;;;4996690;28;20196;-48
2023/04/16 14:08:31;;;;;;;13.25;4.03;;;;;;;;;;4995880;28;20201;-48
2023/04/16 14:10:57;;;;;;;7.35;3.00;;;;;;;;;;4995575;28;20231;-48
2023/04/16 14:13:23;;;;;;;5.32;2.65;;;;;;;;;;4997037;28;20185;-48
2023/04/16 14:15:50;;;;;;;5.53;2.80;;;;;;;;;;4996824;28;20196;-48
2023/04/16 14:18:16;;;;;;;7.50;2.97;;;;;;;;;;4995757;28;20184;-48
2023/04/16 14:20:41;;;;;;;6.15;2.50;;;;;;;;;;4996468;28;20188;-48
2023/04/16 14:23:07;;;;;;;5.35;2.45;;;;;;;;;;4996996;28;20592;-48